createdAt,value
2022-11-23T00:00:43.820Z,98632.38
2022-11-23T00:03:15.560Z,98637.66
2022-11-23T00:05:43.978Z,98642.59
2022-11-23T00:08:13.194Z,98647.66
2022-11-23T00:10:41.062Z,98644.50
2022-11-23T00:13:08.856Z,98639.88
2022-11-23T00:15:36.768Z,98637.53
2022-11-23T00:18:05.077Z,98628.75
2022-11-23T00:20:33.081Z,98631.19
2022-11-23T00:23:03.553Z,98628.53
2022-11-23T00:25:32.697Z,98625.69
2022-11-23T00:28:00.712Z,98626.13
2022-11-23T00:30:29.071Z,98625.09
2022-11-23T00:32:57.354Z,98618.19
2022-11-23T00:35:25.259Z,98616.34
2022-11-23T00:37:53.170Z,98623.53
2022-11-23T00:40:22.477Z,98625.44
2022-11-23T00:42:51.724Z,98626.72
2022-11-23T00:45:19.746Z,98621.78
2022-11-23T00:47:47.722Z,98627.41
2022-11-23T00:50:15.626Z,98638.81
2022-11-23T00:52:43.701Z,98639.03
2022-11-23T00:55:11.536Z,98634.00
2022-11-23T00:57:39.621Z,98632.13
2022-11-23T01:00:09.813Z,98639.63
2022-11-23T01:02:37.781Z,98646.22
2022-11-23T01:05:05.854Z,98637.63
2022-11-23T01:07:33.954Z,98642.47
2022-11-23T01:10:01.820Z,98640.81
2022-11-23T01:12:30.129Z,98642.44
2022-11-23T01:14:57.981Z,98641.84
2022-11-23T01:17:27.276Z,98644.56
2022-11-23T01:19:55.411Z,98646.81
2022-11-23T01:22:23.743Z,98654.56
2022-11-23T01:24:52.097Z,98662.44
2022-11-23T01:27:20.192Z,98653.75
2022-11-23T01:29:48.156Z,98658.59
2022-11-23T01:32:15.926Z,98658.00
2022-11-23T01:34:44.944Z,98658.94
2022-11-23T01:37:12.873Z,98659.66
2022-11-23T01:39:40.742Z,98665.16
2022-11-23T01:42:09.245Z,98667.19
2022-11-23T01:44:39.606Z,98656.81
2022-11-23T01:47:08.328Z,98662.91
2022-11-23T01:49:37.698Z,98665.38
2022-11-23T01:52:11.126Z,98662.53
2022-11-23T01:54:41.093Z,98675.81
2022-11-23T01:57:10.162Z,98669.34
2022-11-23T01:59:38.667Z,98675.31
2022-11-23T02:02:08.330Z,98672.59
2022-11-23T02:04:40.339Z,98669.69
2022-11-23T02:07:10.157Z,98666.38
2022-11-23T02:09:38.487Z,98676.13
2022-11-23T02:12:08.777Z,98673.06
2022-11-23T02:14:37.348Z,98672.28
2022-11-23T02:17:06.109Z,98675.22
2022-11-23T02:19:39.296Z,98680.38
2022-11-23T02:22:09.276Z,98677.13
2022-11-23T02:24:41.397Z,98679.22
2022-11-23T02:27:13.232Z,98671.59
2022-11-23T02:29:41.109Z,98664.28
2022-11-23T02:32:09.411Z,98664.88
2022-11-23T02:34:37.500Z,98670.81
2022-11-23T02:37:05.974Z,98665.69
2022-11-23T02:39:35.812Z,98668.53
2022-11-23T02:42:05.306Z,98671.56
2022-11-23T02:44:40.986Z,98662.66
2022-11-23T02:47:10.028Z,98659.97
2022-11-23T02:49:42.553Z,98656.13
2022-11-23T02:52:10.881Z,98659.50
2022-11-23T02:54:39.105Z,98658.00
2022-11-23T02:57:07.288Z,98662.09
2022-11-23T02:59:36.747Z,98657.28
2022-11-23T03:02:05.393Z,98645.53
2022-11-23T03:04:33.872Z,98648.13
2022-11-23T03:07:02.235Z,98651.53
2022-11-23T03:09:31.309Z,98649.44
2022-11-23T03:11:59.626Z,98649.44
2022-11-23T03:14:29.547Z,98653.31
2022-11-23T03:17:02.375Z,98654.84
2022-11-23T03:19:35.980Z,98650.00
2022-11-23T03:22:05.390Z,98657.41
2022-11-23T03:24:33.548Z,98653.06
2022-11-23T03:27:04.289Z,98648.84
2022-11-23T03:29:32.529Z,98655.28
2022-11-23T03:32:06.916Z,98654.13
2022-11-23T03:34:35.369Z,98655.50
2022-11-23T03:37:04.497Z,98657.41
2022-11-23T03:39:33.198Z,98654.72
2022-11-23T03:42:22.097Z,98658.56
2022-11-23T03:44:50.169Z,98663.75
2022-11-23T03:47:19.997Z,98660.56
2022-11-23T03:49:48.318Z,98657.97
2022-11-23T03:52:16.376Z,98661.41
2022-11-23T03:54:47.559Z,98658.22
2022-11-23T03:57:15.938Z,98652.91
2022-11-23T03:59:44.104Z,98655.63
2022-11-23T04:02:13.688Z,98662.94
2022-11-23T04:04:50.758Z,98664.59
2022-11-23T04:07:39.406Z,98660.59
2022-11-23T04:10:08.198Z,98658.59
2022-11-23T04:13:02.772Z,98659.53
2022-11-23T04:15:33.093Z,98658.22
2022-11-23T04:18:01.422Z,98658.72
2022-11-23T04:20:30.897Z,98666.78
2022-11-23T04:22:58.680Z,98647.75
2022-11-23T04:25:28.548Z,98653.13
2022-11-23T04:27:57.394Z,98660.53
2022-11-23T04:30:25.986Z,98651.81
2022-11-23T04:32:59.006Z,98647.84
2022-11-23T04:35:27.895Z,98649.38
2022-11-23T04:37:57.553Z,98652.53
2022-11-23T04:40:28.999Z,98655.13
2022-11-23T04:43:05.114Z,98657.84
2022-11-23T04:45:38.598Z,98651.03
2022-11-23T04:48:09.956Z,98650.19
2022-11-23T04:50:40.747Z,98655.03
2022-11-23T04:53:12.603Z,98662.31
2022-11-23T04:55:47.411Z,98658.56
2022-11-23T04:58:17.277Z,98660.44
2022-11-23T05:00:47.456Z,98661.25
2022-11-23T05:03:16.080Z,98661.25
2022-11-23T05:05:44.536Z,98653.97
2022-11-23T05:08:13.928Z,98654.28
2022-11-23T05:10:56.917Z,98655.03
2022-11-23T05:13:25.590Z,98661.50
2022-11-23T05:15:53.709Z,98667.03
2022-11-23T05:18:26.956Z,98659.50
2022-11-23T05:20:55.373Z,98657.97
2022-11-23T05:23:25.072Z,98664.66
2022-11-23T05:25:54.766Z,98657.97
2022-11-23T05:28:39.698Z,98663.84
2022-11-23T05:31:09.200Z,98662.19
2022-11-23T05:33:37.701Z,98662.53
2022-11-23T05:36:06.929Z,98665.84
2022-11-23T05:38:40.098Z,98665.00
2022-11-23T05:41:13.908Z,98661.28
2022-11-23T05:43:44.335Z,98660.41
2022-11-23T05:46:17.450Z,98673.09
2022-11-23T05:48:45.955Z,98673.00
2022-11-23T05:51:14.837Z,98668.78
2022-11-23T05:53:48.493Z,98673.13
2022-11-23T05:56:25.976Z,98677.00
2022-11-23T05:59:05.780Z,98676.53
2022-11-23T06:01:36.684Z,98680.66
2022-11-23T06:04:07.093Z,98677.25
2022-11-23T06:06:41.314Z,98680.41
2022-11-23T06:09:11.482Z,98687.59
2022-11-23T06:11:44.668Z,98686.91
2022-11-23T06:14:17.283Z,98687.00
2022-11-23T06:16:47.431Z,98680.50
2022-11-23T06:19:30.563Z,98685.84
2022-11-23T06:21:59.631Z,98691.38
2022-11-23T06:24:33.010Z,98695.34
2022-11-23T06:27:23.656Z,98695.13
2022-11-23T06:29:52.453Z,98691.72
2022-11-23T06:32:22.166Z,98688.41
2022-11-23T06:34:50.080Z,98690.91
2022-11-23T06:37:18.624Z,98694.38
2022-11-23T06:39:53.875Z,98689.00
2022-11-23T06:42:39.398Z,98697.25
2022-11-23T06:45:14.996Z,98695.25
2022-11-23T06:47:43.989Z,98698.97
2022-11-23T06:50:14.487Z,98694.16
2022-11-23T06:52:45.063Z,98693.47
2022-11-23T06:55:14.321Z,98704.94
2022-11-23T06:57:42.572Z,98700.72
2022-11-23T07:00:17.289Z,98706.84
2022-11-23T07:02:45.577Z,98703.66
2022-11-23T07:05:15.425Z,98704.50
2022-11-23T07:07:44.184Z,98711.66
2022-11-23T07:10:21.428Z,98709.53
2022-11-23T07:12:53.571Z,98713.59
2022-11-23T07:15:23.148Z,98716.06
2022-11-23T07:17:53.167Z,98713.44
2022-11-23T07:20:25.588Z,98711.09
2022-11-23T07:23:00.651Z,98708.31
2022-11-23T07:25:30.028Z,98704.50
2022-11-23T07:27:57.986Z,98704.88
2022-11-23T07:30:29.308Z,98710.97
2022-11-23T07:33:00.337Z,98714.38
2022-11-23T07:35:28.667Z,98722.59
2022-11-23T07:37:56.451Z,98728.22
2022-11-23T07:40:24.268Z,98727.50
2022-11-23T07:42:53.483Z,98733.28
2022-11-23T07:45:22.981Z,98734.91
2022-11-23T07:48:00.316Z,98740.66
2022-11-23T07:50:28.278Z,98733.94
2022-11-23T07:52:56.168Z,98737.94
2022-11-23T07:55:24.688Z,98743.91
2022-11-23T07:57:57.588Z,98734.91
2022-11-23T08:00:26.631Z,98741.63
2022-11-23T08:03:25.602Z,98738.53
2022-11-23T08:05:42.249Z,98745.75
2022-11-23T08:08:10.174Z,98752.44
2022-11-23T08:10:44.192Z,98760.75
2022-11-23T08:13:15.801Z,98749.91
2022-11-23T08:15:44.888Z,98751.56
2022-11-23T08:18:14.294Z,98754.56
2022-11-23T08:20:41.907Z,98749.28
2022-11-23T08:23:10.217Z,98744.50
2022-11-23T08:25:38.478Z,98750.56
2022-11-23T08:28:06.452Z,98747.84
2022-11-23T08:30:36.161Z,98744.47
2022-11-23T08:33:04.152Z,98758.25
2022-11-23T08:35:33.159Z,98756.72
2022-11-23T08:38:01.468Z,98758.41
2022-11-23T08:40:29.612Z,98760.56
2022-11-23T08:42:57.580Z,98763.41
2022-11-23T08:45:26.595Z,98756.88
2022-11-23T08:48:00.978Z,98758.22
2022-11-23T08:50:29.612Z,98753.03
2022-11-23T08:52:57.636Z,98755.94
2022-11-23T08:55:26.978Z,98754.56
2022-11-23T08:57:56.591Z,98751.28
2022-11-23T09:00:25.367Z,98760.44
2022-11-23T09:02:53.455Z,98750.50
2022-11-23T09:05:24.636Z,98755.81
2022-11-23T09:07:52.530Z,98757.50
2022-11-23T09:10:22.556Z,98762.84
2022-11-23T09:12:50.666Z,98770.50
2022-11-23T09:15:18.751Z,98765.50
2022-11-23T09:17:46.631Z,98768.38
2022-11-23T09:20:14.641Z,98762.91
2022-11-23T09:22:44.366Z,98769.56
2022-11-23T09:25:12.457Z,98768.28
2022-11-23T09:27:40.515Z,98769.34
2022-11-23T09:30:08.994Z,98760.28
2022-11-23T09:32:37.066Z,98764.56
2022-11-23T09:35:05.217Z,98769.03
2022-11-23T09:37:33.208Z,98770.22
2022-11-23T09:40:02.364Z,98771.75
2022-11-23T09:42:47.568Z,98772.53
2022-11-23T09:45:24.363Z,98780.38
2022-11-23T09:48:09.964Z,98774.47
2022-11-23T09:50:45.474Z,98775.06
2022-11-23T09:53:15.811Z,98775.78
2022-11-23T09:55:46.739Z,98773.69
2022-11-23T09:58:16.377Z,98775.91
2022-11-23T10:00:45.701Z,98784.66
2022-11-23T10:03:15.905Z,98779.38
2022-11-23T10:05:48.586Z,98777.63
2022-11-23T10:08:20.611Z,98772.53
2022-11-23T10:10:54.870Z,98771.25
2022-11-23T10:13:36.643Z,98779.59
2022-11-23T10:16:12.645Z,98771.25
2022-11-23T10:18:44.851Z,98767.66
2022-11-23T10:21:18.121Z,98775.47
2022-11-23T10:23:54.618Z,98769.34
2022-11-23T10:26:27.682Z,98766.16
2022-11-23T10:28:56.557Z,98769.91
2022-11-23T10:31:25.863Z,98770.19
2022-11-23T10:33:56.787Z,98760.97
2022-11-23T10:36:27.508Z,98762.78
2022-11-23T10:38:58.727Z,98756.59
2022-11-23T10:41:30.757Z,98753.91
2022-11-23T10:44:06.160Z,98755.75
2022-11-23T10:46:39.457Z,98762.41
2022-11-23T10:49:16.004Z,98755.13
2022-11-23T10:51:50.457Z,98742.53
2022-11-23T10:54:21.346Z,98754.81
2022-11-23T10:56:51.251Z,98744.94
2022-11-23T10:59:34.723Z,98740.72
2022-11-23T11:02:21.029Z,98740.34
2022-11-23T11:04:54.440Z,98745.41
2022-11-23T11:07:27.408Z,98751.97
2022-11-23T11:09:59.606Z,98733.25
2022-11-23T11:12:29.434Z,98737.06
2022-11-23T11:15:11.176Z,98731.19
2022-11-23T11:17:39.980Z,98726.59
2022-11-23T11:20:22.766Z,98726.75
2022-11-23T11:22:50.809Z,98723.63
2022-11-23T11:25:28.908Z,98721.44
2022-11-23T11:28:01.915Z,98720.03
2022-11-23T11:30:34.470Z,98719.84
2022-11-23T11:33:06.777Z,98711.13
2022-11-23T11:35:38.280Z,98712.59
2022-11-23T11:38:12.955Z,98710.25
2022-11-23T11:40:45.486Z,98711.63
2022-11-23T11:43:17.221Z,98705.13
2022-11-23T11:46:21.425Z,98705.44
2022-11-23T11:48:39.324Z,98691.56
2022-11-23T11:51:09.128Z,98690.75
2022-11-23T11:56:07.041Z,98687.31
2022-11-23T11:58:42.955Z,98679.09
2022-11-23T12:01:18.633Z,98679.44
2022-11-23T12:03:51.082Z,98673.38
2022-11-23T12:06:26.452Z,98670.78
2022-11-23T12:08:59.539Z,98668.97
2022-11-23T12:11:27.457Z,98659.84
2022-11-23T12:14:01.288Z,98662.28
2022-11-23T12:16:35.251Z,98665.22
2022-11-23T12:19:14.713Z,98655.91
2022-11-23T12:22:03.853Z,98649.13
2022-11-23T12:24:38.724Z,98659.44
2022-11-23T12:27:12.963Z,98652.66
2022-11-23T12:30:05.921Z,98664.47
2022-11-23T12:32:41.889Z,98661.22
2022-11-23T12:35:31.328Z,98657.44
2022-11-23T12:38:06.718Z,98654.00
2022-11-23T12:40:49.140Z,98648.91
2022-11-23T12:43:21.710Z,98646.09
2022-11-23T12:46:05.170Z,98633.16
2022-11-23T12:48:46.470Z,98641.47
2022-11-23T12:51:21.224Z,98646.41
2022-11-23T12:53:55.480Z,98634.47
2022-11-23T12:56:32.285Z,98641.31
2022-11-23T12:59:00.606Z,98636.75
2022-11-23T13:01:32.378Z,98633.88
2022-11-23T13:04:15.764Z,98640.03
2022-11-23T13:07:26.950Z,98643.09
2022-11-23T13:09:56.678Z,98632.66
2022-11-23T13:12:32.472Z,98625.84
2022-11-23T13:15:04.603Z,98627.03
2022-11-23T13:17:37.165Z,98628.22
2022-11-23T13:20:24.400Z,98617.28
2022-11-23T13:22:52.644Z,98633.31
2022-11-23T13:25:23.625Z,98624.91
2022-11-23T13:28:02.431Z,98619.78
2022-11-23T13:30:52.332Z,98621.63
2022-11-23T13:33:32.823Z,98618.59
2022-11-23T13:36:09.421Z,98625.72
2022-11-23T13:38:44.480Z,98613.88
2022-11-23T13:41:33.496Z,98610.16
2022-11-23T13:44:12.862Z,98613.28
2022-11-23T13:46:41.018Z,98593.25
2022-11-23T13:49:30.303Z,98581.81
2022-11-23T13:52:05.956Z,98581.97
2022-11-23T13:54:34.702Z,98564.31
2022-11-23T13:57:03.553Z,98559.66
2022-11-23T13:59:34.971Z,98558.78
2022-11-23T14:02:30.108Z,98557.63
2022-11-23T14:05:17.236Z,98550.47
2022-11-23T14:07:46.528Z,98558.28
2022-11-23T14:10:18.968Z,98564.63
2022-11-23T14:12:50.501Z,98552.38
2022-11-23T14:15:21.004Z,98542.03
2022-11-23T14:18:03.272Z,98544.94
2022-11-23T14:20:46.587Z,98543.84
2022-11-23T14:23:29.032Z,98539.28
2022-11-23T14:26:01.076Z,98537.81
2022-11-23T14:28:35.732Z,98536.34
2022-11-23T14:31:13.863Z,98526.50
2022-11-23T14:33:46.284Z,98531.31
2022-11-23T14:36:22.033Z,98532.22
2022-11-23T14:39:08.717Z,98520.47
2022-11-23T14:41:37.455Z,98524.09
2022-11-23T14:44:07.117Z,98514.19
2022-11-23T14:46:37.250Z,98511.13
2022-11-23T14:49:06.912Z,98516.47
2022-11-23T14:51:37.029Z,98519.47
2022-11-23T14:54:13.258Z,98523.81
2022-11-23T14:56:44.093Z,98521.34
2022-11-23T14:59:20.862Z,98523.78
2022-11-23T15:01:52.886Z,98520.75
2022-11-23T15:04:25.336Z,98518.59
2022-11-23T15:06:57.055Z,98521.88
2022-11-23T15:09:32.973Z,98524.19
2022-11-23T15:12:07.059Z,98518.03
2022-11-23T15:14:35.815Z,98527.00
2022-11-23T15:17:18.957Z,98527.47
2022-11-23T15:19:54.483Z,98525.16
2022-11-23T15:22:23.349Z,98523.78
2022-11-23T15:24:52.991Z,98519.84
2022-11-23T15:27:24.561Z,98529.75
2022-11-23T15:29:54.434Z,98529.47
2022-11-23T15:32:34.441Z,98532.94
2022-11-23T15:35:04.129Z,98527.69
2022-11-23T15:37:33.804Z,98530.53
2022-11-23T15:40:02.146Z,98532.84
2022-11-23T15:42:30.532Z,98532.16
2022-11-23T15:44:58.921Z,98533.13
2022-11-23T15:47:30.114Z,98530.78
2022-11-23T15:50:03.237Z,98526.13
2022-11-23T15:52:34.892Z,98528.63
2022-11-23T15:55:08.805Z,98526.50
2022-11-23T15:57:39.530Z,98527.66
2022-11-23T16:00:09.510Z,98540.16
2022-11-23T16:02:41.642Z,98535.38
2022-11-23T16:05:15.127Z,98533.59
2022-11-23T16:07:51.019Z,98529.72
2022-11-23T16:10:20.473Z,98535.06
2022-11-23T16:12:50.517Z,98540.28
2022-11-23T16:15:33.360Z,98541.66
2022-11-23T16:18:04.938Z,98547.28
2022-11-23T16:20:33.441Z,98548.19
2022-11-23T16:23:01.643Z,98552.38
2022-11-23T16:25:31.540Z,98557.38
2022-11-23T16:28:00.352Z,98549.44
2022-11-23T16:30:41.611Z,98551.97
2022-11-23T16:33:16.835Z,98563.34
2022-11-23T16:35:49.901Z,98568.22
2022-11-23T16:38:18.277Z,98575.59
2022-11-23T16:40:48.381Z,98575.47
2022-11-23T16:43:17.479Z,98583.56
2022-11-23T16:45:47.176Z,98586.59
2022-11-23T16:48:33.475Z,98586.31
2022-11-23T16:51:02.676Z,98592.06
2022-11-23T16:53:53.420Z,98593.16
2022-11-23T16:56:21.425Z,98598.63
2022-11-23T16:58:49.621Z,98600.94
2022-11-23T17:01:19.687Z,98601.38
2022-11-23T17:03:47.971Z,98614.75
2022-11-23T17:06:23.784Z,98615.16
2022-11-23T17:08:59.375Z,98620.06
2022-11-23T17:11:34.724Z,98621.94
2022-11-23T17:14:03.473Z,98628.13
2022-11-23T17:16:33.588Z,98629.47
2022-11-23T17:19:05.700Z,98635.50
2022-11-23T17:21:35.314Z,98642.47
2022-11-23T17:24:05.290Z,98654.91
2022-11-23T17:26:35.086Z,98664.34
2022-11-23T17:29:03.702Z,98665.34
2022-11-23T17:31:33.306Z,98674.59
2022-11-23T17:34:02.332Z,98684.69
2022-11-23T18:02:16.363Z,98740.28
2022-11-23T18:04:44.387Z,98740.94
2022-11-23T18:07:13.965Z,98745.41
2022-11-23T18:09:42.199Z,98743.31
2022-11-23T18:12:10.553Z,98755.25
2022-11-23T18:14:39.043Z,98757.22
2022-11-23T18:17:07.497Z,98760.22
2022-11-23T18:19:37.184Z,98754.22
2022-11-23T18:22:05.268Z,98750.09
2022-11-23T18:24:33.297Z,98754.22
2022-11-23T18:27:00.950Z,98758.88
2022-11-23T18:29:28.848Z,98762.16
2022-11-23T18:31:56.805Z,98771.19
2022-11-23T18:34:24.994Z,98773.41
2022-11-23T18:36:56.853Z,98776.94
2022-11-23T18:39:24.984Z,98780.81
2022-11-23T18:41:52.771Z,98779.16
2022-11-23T18:44:20.743Z,98785.16
2022-11-23T18:46:49.496Z,98785.25
2022-11-23T18:49:17.395Z,98782.22
2022-11-23T18:51:46.595Z,98782.91
2022-11-23T18:54:15.764Z,98784.31
2022-11-23T18:56:45.422Z,98790.66
2022-11-23T18:59:35.030Z,98787.09
2022-11-23T19:02:02.225Z,98786.81
2022-11-23T19:04:32.592Z,98793.06
2022-11-23T19:07:00.374Z,98791.50
2022-11-23T19:09:29.565Z,98803.56
2022-11-23T19:11:57.423Z,98806.34
2022-11-23T19:14:25.022Z,98809.63
2022-11-23T19:16:52.829Z,98813.41
2022-11-23T19:19:21.034Z,98814.38
2022-11-23T19:21:48.889Z,98827.38
2022-11-23T19:24:17.312Z,98829.28
2022-11-23T19:26:47.036Z,98828.19
2022-11-23T19:29:14.846Z,98837.41
2022-11-23T19:31:43.031Z,98836.50
2022-11-23T19:34:14.822Z,98838.59
2022-11-23T19:36:43.122Z,98840.25
2022-11-23T19:39:11.376Z,98843.28
2022-11-23T19:41:39.172Z,98845.06
2022-11-23T19:44:10.507Z,98848.81
2022-11-23T19:46:38.183Z,98844.47
2022-11-23T19:49:07.093Z,98852.63
2022-11-23T19:51:35.225Z,98854.25
2022-11-23T20:02:59.998Z,98877.09
2022-11-23T20:05:29.412Z,98879.56
2022-11-23T20:07:59.800Z,98884.84
2022-11-23T20:10:27.676Z,98889.47
2022-11-23T20:12:55.432Z,98885.19
2022-11-23T20:15:24.212Z,98891.84
2022-11-23T20:17:52.998Z,98900.63
2022-11-23T20:20:20.857Z,98896.69
2022-11-23T20:22:49.926Z,98907.50
2022-11-23T20:25:18.764Z,98912.44
2022-11-23T20:27:46.380Z,98917.47
2022-11-23T20:30:14.188Z,98912.81
2022-11-23T20:32:41.914Z,98914.28
2022-11-23T20:35:10.821Z,98917.41
2022-11-23T20:37:39.538Z,98917.56
2022-11-23T20:40:10.272Z,98920.91
2022-11-23T20:42:37.850Z,98932.66
2022-11-23T20:45:05.892Z,98929.00
2022-11-23T20:47:33.607Z,98933.03
2022-11-23T20:50:01.373Z,98947.59
2022-11-23T20:52:29.194Z,98962.22
2022-11-23T20:54:57.057Z,98958.59
2022-11-23T20:57:26.223Z,98964.31
2022-11-23T20:59:54.677Z,98963.97
2022-11-23T21:02:22.452Z,98963.50
2022-11-23T21:04:51.075Z,98980.34
2022-11-23T21:07:18.778Z,98979.00
2022-11-23T21:09:48.935Z,98977.34
2022-11-23T21:12:34.309Z,98987.19
2022-11-23T21:15:03.440Z,98984.94
2022-11-23T21:17:33.685Z,98989.38
2022-11-23T21:20:02.177Z,98990.00
2022-11-23T21:22:30.807Z,98994.75
2022-11-23T21:24:58.468Z,99001.03
2022-11-23T21:27:28.289Z,98996.00
2022-11-23T21:29:55.885Z,98998.38
2022-11-23T21:32:25.158Z,99007.03
2022-11-23T21:34:52.995Z,99012.13
2022-11-23T21:37:20.850Z,99018.06
2022-11-23T21:39:53.014Z,99029.00
2022-11-23T21:42:21.213Z,99039.25
2022-11-23T21:44:49.290Z,99041.69
2022-11-23T21:47:17.573Z,99048.19
2022-11-23T21:49:47.773Z,99048.06
2022-11-23T21:52:18.012Z,99046.84
2022-11-23T21:54:49.158Z,99049.78
2022-11-23T21:57:17.640Z,99052.03
2022-11-23T21:59:45.315Z,99060.63
2022-11-23T22:02:13.315Z,99068.97
2022-11-23T22:04:40.969Z,99068.16
2022-11-23T22:07:10.133Z,99077.25
2022-11-23T22:09:38.988Z,99081.69
2022-11-23T22:12:07.901Z,99086.63
2022-11-23T22:14:35.850Z,99092.94
2022-11-23T22:17:04.155Z,99095.72
2022-11-23T22:19:34.582Z,99097.13
2022-11-23T22:22:02.247Z,99101.44
2022-11-23T22:24:31.794Z,99105.81
2022-11-23T22:26:59.820Z,99115.50
2022-11-23T22:29:27.447Z,99115.22
2022-11-23T22:31:55.349Z,99113.22
2022-11-23T22:34:48.348Z,99125.22
2022-11-23T22:37:16.042Z,99126.13
2022-11-23T22:40:02.813Z,99128.22
2022-11-23T22:42:59.297Z,99131.84
2022-11-23T22:45:28.193Z,99127.19
2022-11-23T22:48:10.414Z,99136.56
2022-11-23T22:50:43.075Z,99135.81
2022-11-23T22:53:41.449Z,99146.84
2022-11-23T22:56:54.301Z,99142.91
2022-11-23T22:59:28.108Z,99147.97
2022-11-23T23:02:08.559Z,99150.03
2022-11-23T23:05:13.593Z,99158.31
2022-11-23T23:11:29.150Z,99153.97
2022-11-23T23:14:28.723Z,99159.75
2022-11-23T23:17:17.674Z,99161.00
2022-11-23T23:19:59.078Z,99166.88
2022-11-23T23:22:36.682Z,99166.88
2022-11-23T23:25:07.589Z,99176.59
2022-11-23T23:27:35.645Z,99166.38
2022-11-23T23:30:05.042Z,99166.66
2022-11-23T23:32:33.083Z,99186.81
2022-11-23T23:35:00.802Z,99187.03
2022-11-23T23:37:28.434Z,99197.56
2022-11-23T23:39:56.261Z,99194.44
2022-11-23T23:42:25.014Z,99191.34
2022-11-23T23:44:52.676Z,99195.78
2022-11-23T23:47:21.962Z,99202.34
2022-11-23T23:49:49.938Z,99195.06
2022-11-23T23:52:18.813Z,99195.16
2022-11-23T23:54:46.708Z,99197.66
2022-11-23T23:57:14.492Z,99196.63
2022-11-23T23:59:42.242Z,99193.72
